Rochester, NY (14602)

11:39 AM EDT on August 30, 2015 (GMT -0400)
Park Avenue | | Change Station
CLOSE
Current Station
Personal Weather Station
Location: Rochester, NY
Elevation: 518 ft
Nearby Weather Stations

Elev 518 ft 43.15 °N, 77.59 °W | Updated 11 seconds ago

Overcast
Overcast
77.0 °F
Feels Like 79 °F
N
0.2
Wind Variable Wind from ESE
Gusts 2.5 mph

Today
High -- | Low -- °F
--% Chance of Precip.
Yesterday
High -- | Low -- °F
Precip. -- in
6:32 AM 7:49 PM
Full, 99% visible
Pressure 30.10 in
Visibility 10.0 miles
Clouds Mostly Cloudy 6000 ft
Mostly Cloudy 12000 ft
Heat Index 79 °F
Dew Point 60 °F
Humidity 56%
Rainfall 0.00 in
Snow Depth Not available.
UV 2.0 out of 12
Pollen 9.80 out of 12
Air Quality Not available.
Flu Activity Not available.
METAR KROC 301454Z 23005KT 10SM BKN060 BKN120 23/17 A3009 RMK AO2 SLP191 T02280167 50003
Pressure 30.10 in
Visibility 10.0 miles
Clouds Mostly Cloudy 6000 ft
Mostly Cloudy 12000 ft
Heat Index 79 °F
Dew Point 60 °F
Humidity 56%
Rainfall 0.00 in
Snow Depth Not available.
UV 2.0 out of 12
Pollen 9.80 out of 12
Air Quality Not available.
Flu Activity Not available.
METAR KROC 301454Z 23005KT 10SM BKN060 BKN120 23/17 A3009 RMK AO2 SLP191 T02280167 50003

10-Day Weather Forecast

×

Almanac

Astronomy

Aug. 30, 2015 Rise Set
Actual Time
Civil Twilight
Nautical Twilight
Astronomical Twilight
Moon
Length of Visible Light
Length of Day
Tomorrow will be .
, % of the Moon is Illuminated

Today's Extremes

State Highs State Lows

Community

WunderPhotos

Upload Photos

1,850,996 photos uploaded!

WunderBlogs® & News

Nearby

Air Quality

  Air Quality AQ Index Pollutant
Not available.

Snow Depth

Station Depth Elevation

Earthquake Activity

City Distance Mag. Time & Date
Minimum magnitude displayed is 2.5.

Coastal Water Temperatures

Place Temperature

Stations

Nearby Weather Stations

Station Location Temp. Windchill Dew Point Humidity Wind Precip. Elev Updated Type